Nearby METAR Reports

 

KRNT - Renton, Washington, USA
Distance from station: WNW 10mi, 17km
Updated: Sat, 20-Jan-2018 11:53am PST
Overcast
Overcast
 Wind from SE
Wind: SE 7 mph , 11 km/h
Temperature: 45°F , 7°C
Wind Chill: 41°F , 5°C
Dew Point: 39°F , 4°C
Humidity: 81%
Barometer: 30.07 inHg , 1018.3 hPa
Clouds: Overcast
Visibility: 10 miles , 16 km
Cloud details: Mostly cloudy 2900 ft
Mostly cloudy 4300 ft
Overcast 6500 ft
2018/01/20 19:53 KRNT 201953Z 14006KT 10SM BKN029 BKN043 OVC065 07/04 A3007 RMK AO2 RAB11E50 SLP186 P0000 T00720039
KSEA - Seattle/Metro, Washington, USA
Distance from station: W 14mi, 23km
Updated: Sat, 20-Jan-2018 12:23pm PST
Overcast
Overcast
 Wind from SSE
Wind: SSE 13 mph , 20 km/h
Temperature: 45°F , 7°C
Wind Chill: 39°F , 4°C
Dew Point: 39°F , 4°C
Humidity: 81%
Barometer: 30.04 inHg , 1017.3 hPa
Clouds: Overcast
Visibility: 10 miles , 16 km
Cloud details: Few Clouds 1500 ft
Mostly cloudy 2800 ft
Overcast 3600 ft
2018/01/20 20:23 KSEA 202023Z 16011KT 10SM FEW015 BKN028 OVC036 07/04 A3004 RMK AO2 RAE04 P0000 T00670039
 
KBFI - Seattle/Boeing, Washington, USA
Distance from station: WNW 16mi, 26km
Updated: Sat, 20-Jan-2018 11:53am PST
Light rain, Overcast
Light rain, Overcast
 Wind from S
Wind: S 12 mph , 19 km/h
Temperature: 45°F , 7°C
Wind Chill: 39°F , 4°C
Dew Point: 39°F , 4°C
Humidity: 81%
Barometer: 30.07 inHg , 1018.3 hPa
Summary: Light rain
Clouds: Overcast
Visibility: 10 miles , 16 km
Cloud details: Mostly cloudy 2600 ft
Overcast 3700 ft
2018/01/20 19:53 KBFI 201953Z 17010KT 10SM -RA BKN026 OVC037 07/04 A3007 RMK AO2 RAB06 SLP181 P0001 T00720044
KPLU - Puyallup/Thun, Washington, USA
Distance from station: SSW 27mi, 43km
Updated: Sat, 20-Jan-2018 12:35pm PST
Mostly cloudy
Mostly cloudy
 Wind from S
Wind: S 7 mph , 11 km/h
Temperature: 45°F , 7°C
Wind Chill: 41°F , 5°C
Dew Point: 39°F , 4°C
Humidity: 81%
Barometer: 30.05 inHg , 1017.6 hPa
Clouds: Mostly cloudy
Visibility: 10 miles , 16 km
Cloud details: Mostly cloudy 3700 ft
Mostly cloudy 5000 ft
2018/01/20 20:35 KPLU 202035Z AUTO 17006KT 10SM BKN037 BKN050 07/04 A3005 RMK AO2
 
KTIW - Tacoma, Washington, USA
Distance from station: WSW 29mi, 47km
Updated: Sat, 20-Jan-2018 11:53am PST
Overcast
Overcast
 Wind from S
Wind: S 10 mph , 17 km/h
Temperature: 43°F , 6°C
Wind Chill: 37°F , 3°C
Dew Point: 39°F , 4°C
Humidity: 87%
Barometer: 30.06 inHg , 1017.9 hPa
Clouds: Overcast
Visibility: 10 miles , 16 km
Cloud details: Partly cloudy 1100 ft
Mostly cloudy 2600 ft
Overcast 3900 ft
2018/01/20 19:53 KTIW 201953Z 17009KT 10SM SCT011 BKN026 OVC039 06/04 A3006 RMK AO2 RAE40 SLP180 P0001 T00610044
KTCM - Tacoma/Mc Chord, Washington, USA
Distance from station: SW 31mi, 50km
Updated: Sat, 20-Jan-2018 12:40pm PST
Light rain, Mostly cloudy
Light rain, Mostly cloudy
 Wind from S
Wind: S 12 mph , 19 km/h
Temperature: 45°F , 7°C
Wind Chill: 39°F , 4°C
Dew Point: 45°F , 7°C
Humidity: 100%
Barometer: 30.05 inHg , 1017.6 hPa
Summary: Light rain
Clouds: Mostly cloudy
Visibility: 10 miles , 16 km
Cloud details: Few Clouds 2500 ft
Mostly cloudy 3300 ft
2018/01/20 20:40 KTCM 202040Z AUTO 17010KT 10SM -RA FEW025 BKN033 07/07 A3005 RMK AO2 RAB40 SLP181 $
 
KPAE - Everett, Washington, USA
Distance from station: NNW 35mi, 56km
Updated: Sat, 20-Jan-2018 11:53am PST
Overcast
Overcast
 Wind from SE
Wind: SE 16 mph , 26 km/h
Temperature: 43°F , 6°C
Wind Chill: 35°F , 2°C
Dew Point: 37°F , 3°C
Humidity: 81%
Barometer: 30.04 inHg , 1017.3 hPa
Clouds: Overcast
Visibility: 10 miles , 16 km
Cloud details: Overcast 1600 ft
2018/01/20 19:53 KPAE 201953Z 13014KT 10SM OVC016 06/03 A3004 RMK AO2 SLP174 T00610033
KPWT - Bremerton Ntnl, Washington, USA
Distance from station: W 35mi, 56km
Updated: Sat, 20-Jan-2018 11:56am PST
Overcast
Overcast
 Wind from S
Wind: S 12 mph , 19 km/h
Temperature: 41°F , 5°C
Wind Chill: 34°F , 1°C
Dew Point: 39°F , 4°C
Humidity: 93%
Barometer: 30.04 inHg , 1017.3 hPa
Clouds: Overcast
Visibility: 10 miles , 16 km
Cloud details: Overcast 600 ft
2018/01/20 19:56 KPWT 201956Z AUTO 19010KT 10SM OVC006 05/04 A3004 RMK AO2 RAE45 CIG 004V009 SLP191 P0002 T00500044
 
KGRF - Fort Lewis/Gray, Washington, USA
Distance from station: SW 37mi, 59km
Updated: Sat, 20-Jan-2018 12:24pm PST
Light rain, Overcast
Light rain, Overcast
 Wind from SSE
Wind: SSE 10 mph , 17 km/h
Temperature: 46°F , 8°C
Wind Chill: 41°F , 5°C
Dew Point: 45°F , 7°C
Humidity: 93%
Barometer: 30.05 inHg , 1017.6 hPa
Summary: Light rain
Clouds: Overcast
Visibility: 10 miles , 16 km
Cloud details: Few Clouds 2100 ft
Mostly cloudy 3300 ft
Overcast 5500 ft
2018/01/20 20:24 KGRF 202024Z AUTO 16009KT 10SM -RA FEW021 BKN033 OVC055 08/07 A3005 RMK AO2 RAB24 SLP181 $